San Francisco, California
Traffic Map
Current Weather Conditions
San Francisco, California
Overcast Light Rain
Overcast
59°
Feels Like: 59°
Wind Chill: 59° Ceiling: 1500
Heat Index: 59° Visibility: 7mi
Dew Point: 57° Wind: 6mph
Humidity: 93% Direction: 210° (SSW)
Pressure: 30.14in Gusts: 0mph
Raw Report DataKSFO 090156Z 21005KT 7SM -RA SCT005 BKN015 OVC021 15/14 A3014 RMK AO2 RAB05 SLP205 P0001 T01500139
Traffic Incident Summary
Active as of:
Severity:
Category:
InformationThere was an issue retrieving the traffic information for this location. Please try a different location or try again shortly.
Advertisements
Track Severe Weather on mobile